createdAt,value
2018-12-23T00:01:33.408Z,100783.77
2018-12-23T00:04:20.990Z,100790.09
2018-12-23T00:07:09.011Z,100807.34
2018-12-23T00:09:56.584Z,100813.55
2018-12-23T00:12:43.698Z,100822.09
2018-12-23T00:15:31.447Z,100829.23
2018-12-23T00:18:18.779Z,100826.23
2018-12-23T00:24:13.262Z,100837.44
2018-12-23T00:27:01.133Z,100833.19
2018-12-23T00:29:49.243Z,100845.17
2018-12-23T00:32:39.900Z,100847.66
2018-12-23T00:38:37.087Z,100860.94
2018-12-23T00:41:30.437Z,100869.45
2018-12-23T00:44:17.772Z,100873.05
2018-12-23T00:50:27.145Z,100878.91
2018-12-23T00:53:17.200Z,100881.23
2018-12-23T00:56:06.639Z,100882.33
2018-12-23T00:58:54.149Z,100882.88
2018-12-23T01:01:41.834Z,100880.13
2018-12-23T01:04:35.584Z,100884.39
2018-12-23T01:07:23.837Z,100884.41
2018-12-23T01:10:24.608Z,100892.41
2018-12-23T01:13:12.880Z,100896.99
2018-12-23T01:16:15.956Z,100896.99
2018-12-23T01:22:22.175Z,100912.20
2018-12-23T01:25:09.316Z,100915.30
2018-12-23T01:27:57.419Z,100921.87
2018-12-23T01:33:58.938Z,100939.66
2018-12-23T01:36:45.954Z,100940.08
2018-12-23T01:39:33.228Z,100933.41
2018-12-23T01:45:36.809Z,100937.11
2018-12-23T01:51:31.092Z,100938.16
2018-12-23T01:54:19.678Z,100936.05
2018-12-23T01:57:07.041Z,100930.86
2018-12-23T02:03:01.354Z,100936.19
2018-12-23T02:05:48.576Z,100939.00
2018-12-23T02:08:38.002Z,100937.31
2018-12-23T02:11:25.932Z,100933.61
2018-12-23T02:14:21.278Z,100935.91
2018-12-23T02:17:08.976Z,100943.66
2018-12-23T02:19:57.460Z,100945.98
2018-12-23T02:22:45.046Z,100951.41
2018-12-23T02:25:40.476Z,100947.58
2018-12-23T02:31:35.085Z,100944.22
2018-12-23T02:34:24.047Z,100941.62
2018-12-23T02:37:19.865Z,100945.65
2018-12-23T02:40:13.222Z,100936.58
2018-12-23T02:43:03.402Z,100939.66
2018-12-23T02:45:50.476Z,100941.03
2018-12-23T02:48:38.701Z,100938.97
2018-12-23T02:51:28.284Z,100937.14
2018-12-23T02:54:15.928Z,100940.94
2018-12-23T02:57:03.215Z,100944.54
2018-12-23T02:59:50.552Z,100936.72
2018-12-23T03:02:38.208Z,100926.66
2018-12-23T03:05:29.187Z,100927.59
2018-12-23T03:08:17.423Z,100920.22
2018-12-23T03:11:05.185Z,100922.39
2018-12-23T03:13:53.910Z,100932.95
2018-12-23T03:16:41.462Z,100934.68
2018-12-23T03:19:36.534Z,100932.58
2018-12-23T03:22:36.156Z,100925.83
2018-12-23T03:25:23.963Z,100932.98
2018-12-23T03:28:11.634Z,100931.81
2018-12-23T03:34:06.218Z,100931.04
2018-12-23T03:36:55.402Z,100914.33
2018-12-23T03:42:51.420Z,100913.91
2018-12-23T03:45:39.080Z,100915.86
2018-12-23T03:48:31.206Z,100906.67
2018-12-23T03:51:18.687Z,100905.41
2018-12-23T03:54:06.518Z,100901.95
2018-12-23T03:56:54.117Z,100896.38
2018-12-23T03:59:42.228Z,100903.88
2018-12-23T04:02:29.621Z,100908.98
2018-12-23T04:05:17.180Z,100913.59
2018-12-23T04:11:10.822Z,100915.56
2018-12-23T04:13:59.265Z,100914.80
2018-12-23T04:16:47.361Z,100910.47
2018-12-23T04:19:34.924Z,100912.71
2018-12-23T04:22:31.222Z,100913.66
2018-12-23T04:25:19.755Z,100908.39
2018-12-23T04:28:06.774Z,100912.80
2018-12-23T04:30:57.181Z,100906.64
2018-12-23T04:36:51.355Z,100915.86
2018-12-23T04:39:39.497Z,100910.14
2018-12-23T04:42:29.795Z,100907.53
2018-12-23T04:48:24.024Z,100914.55
2018-12-23T04:54:18.598Z,100908.88
2018-12-23T04:57:06.135Z,100912.40
2018-12-23T04:59:53.836Z,100915.92
2018-12-23T05:15:10.508Z,100932.04
2018-12-23T05:18:00.086Z,100927.72
2018-12-23T05:23:55.513Z,100923.48
2018-12-23T05:26:43.865Z,100929.20
2018-12-23T05:29:32.016Z,100930.89
2018-12-23T05:32:21.340Z,100922.59
2018-12-23T05:35:09.394Z,100928.75
2018-12-23T05:37:57.734Z,100934.81
2018-12-23T05:40:45.219Z,100937.45
2018-12-23T05:43:34.577Z,100927.92
2018-12-23T05:52:44.382Z,100931.30
2018-12-23T05:55:33.389Z,100932.76
2018-12-23T06:07:51.828Z,100940.81
2018-12-23T06:10:41.974Z,100939.50
2018-12-23T06:13:29.603Z,100939.93
2018-12-23T06:16:16.952Z,100937.30
2018-12-23T06:19:14.749Z,100946.45
2018-12-23T06:22:02.870Z,100951.72
2018-12-23T06:24:49.911Z,100946.45
2018-12-23T06:27:45.917Z,100956.07
2018-12-23T06:30:33.908Z,100952.61
2018-12-23T06:33:21.287Z,100961.70
2018-12-23T06:36:08.809Z,100957.14
2018-12-23T06:38:56.223Z,100964.73
2018-12-23T06:41:51.800Z,100971.88
2018-12-23T06:54:10.467Z,100966.78
2018-12-23T06:56:58.841Z,100978.12
2018-12-23T06:59:51.171Z,100977.26
2018-12-23T07:02:38.632Z,100978.98
2018-12-23T07:05:29.535Z,100976.09
2018-12-23T07:08:17.293Z,100976.13
2018-12-23T07:29:48.798Z,100956.09
2018-12-23T07:32:35.643Z,100961.64
2018-12-23T07:35:22.901Z,100956.20
2018-12-23T07:38:10.413Z,100950.76
2018-12-23T07:40:59.155Z,100961.47
2018-12-23T07:43:46.942Z,100956.20
2018-12-23T07:46:34.008Z,100950.82
2018-12-23T07:52:33.750Z,100955.81
2018-12-23T07:55:21.164Z,100963.95
2018-12-23T08:01:16.460Z,100963.20
2018-12-23T08:04:03.662Z,100964.99
2018-12-23T08:06:51.505Z,100970.95
2018-12-23T08:09:39.016Z,100971.20
2018-12-23T08:12:35.684Z,100973.70
2018-12-23T08:15:25.538Z,100983.13
2018-12-23T08:30:53.533Z,100987.86
2018-12-23T08:36:48.994Z,100998.28
2018-12-23T08:42:42.986Z,100995.16
2018-12-23T08:45:30.578Z,100998.11
2018-12-23T08:48:17.933Z,100997.20
2018-12-23T08:51:07.852Z,100998.30
2018-12-23T08:53:57.461Z,101005.14
2018-12-23T08:56:45.095Z,101005.97
2018-12-23T08:59:32.696Z,100998.02
2018-12-23T09:02:20.370Z,100993.57
2018-12-23T09:05:09.033Z,100987.36
2018-12-23T09:07:57.092Z,100987.58
2018-12-23T09:10:46.458Z,100984.46
2018-12-23T09:13:36.619Z,100981.64
2018-12-23T09:16:24.234Z,100967.80
2018-12-23T09:19:11.580Z,100973.39
2018-12-23T09:21:59.195Z,100973.72
2018-12-23T09:24:46.570Z,100976.64
2018-12-23T09:27:34.018Z,100968.64
2018-12-23T09:30:22.598Z,100971.16
2018-12-23T09:33:09.944Z,100967.64
2018-12-23T09:36:02.429Z,100963.53
2018-12-23T09:38:44.993Z,100972.11
2018-12-23T09:47:53.546Z,100962.48
2018-12-23T09:50:41.146Z,100955.89
2018-12-23T09:53:28.470Z,100948.41
2018-12-23T09:59:23.831Z,100945.37
2018-12-23T10:02:11.427Z,100938.29
2018-12-23T10:05:00.993Z,100941.33
2018-12-23T10:17:23.807Z,100918.08
2018-12-23T10:20:11.179Z,100907.29
2018-12-23T10:22:58.397Z,100909.50
2018-12-23T10:25:45.881Z,100907.78
2018-12-23T10:28:33.193Z,100900.27
2018-12-23T10:37:58.819Z,100913.38
2018-12-23T10:40:45.826Z,100906.35
2018-12-23T10:43:34.337Z,100896.47
2018-12-23T10:46:53.525Z,100888.91
2018-12-23T10:49:57.531Z,100887.63
2018-12-23T10:52:52.334Z,100880.55
2018-12-23T11:17:31.192Z,100839.58
2018-12-23T11:20:18.540Z,100826.27
2018-12-23T11:23:06.028Z,100831.09
2018-12-23T11:25:53.739Z,100834.91
2018-12-23T11:28:40.751Z,100826.52
2018-12-23T11:31:28.205Z,100835.86
2018-12-23T11:34:15.537Z,100834.83
2018-12-23T11:37:03.735Z,100831.37
2018-12-23T11:55:40.687Z,100805.38
2018-12-23T11:58:28.412Z,100805.34
2018-12-23T12:01:15.783Z,100802.70
2018-12-23T12:04:03.160Z,100801.24
2018-12-23T12:06:53.189Z,100797.25
2018-12-23T12:09:43.008Z,100786.15
2018-12-23T12:12:30.433Z,100782.24
2018-12-23T12:15:20.820Z,100777.19
2018-12-23T12:18:11.089Z,100774.12
2018-12-23T12:20:58.333Z,100762.50
2018-12-23T12:23:46.065Z,100771.89
2018-12-23T12:26:33.356Z,100769.57
2018-12-23T12:29:28.565Z,100780.56
2018-12-23T12:32:19.886Z,100775.75
2018-12-23T12:35:05.342Z,100776.32
2018-12-23T12:37:52.617Z,100775.21
2018-12-23T12:40:40.962Z,100773.18
2018-12-23T12:43:29.050Z,100771.01
2018-12-23T12:46:16.633Z,100762.34
2018-12-23T12:49:03.928Z,100751.95
2018-12-23T12:51:51.140Z,100745.75
2018-12-23T13:00:55.904Z,100752.39
2018-12-23T13:03:44.561Z,100738.76
2018-12-23T13:15:52.737Z,100738.94
2018-12-23T13:18:40.091Z,100736.02
2018-12-23T13:21:27.254Z,100737.77
2018-12-23T13:24:15.296Z,100728.64
2018-12-23T13:27:02.733Z,100728.37
2018-12-23T13:29:49.927Z,100723.31
2018-12-23T13:35:45.154Z,100719.22
2018-12-23T13:38:32.895Z,100714.69
2018-12-23T13:41:27.887Z,100718.22
2018-12-23T13:44:24.123Z,100715.30
2018-12-23T13:57:25.184Z,100715.72
2018-12-23T14:00:37.079Z,100705.77
2018-12-23T14:16:16.626Z,100695.21
2018-12-23T14:22:10.704Z,100690.66
2018-12-23T14:25:01.532Z,100700.89
2018-12-23T14:27:49.899Z,100694.44
2018-12-23T14:33:51.204Z,100694.46
2018-12-23T14:36:40.331Z,100687.94
2018-12-23T14:49:02.972Z,100667.09
2018-12-23T14:51:50.414Z,100664.99
2018-12-23T14:54:37.938Z,100653.63
2018-12-23T14:57:28.227Z,100653.34
2018-12-23T15:00:17.779Z,100647.52
2018-12-23T15:03:04.929Z,100654.25
2018-12-23T15:05:52.701Z,100654.39
2018-12-23T15:08:40.930Z,100646.75
2018-12-23T15:11:28.597Z,100648.27
2018-12-23T15:14:16.808Z,100644.74
2018-12-23T15:17:04.383Z,100637.34
2018-12-23T15:19:51.473Z,100633.31
2018-12-23T15:25:46.494Z,100623.30
2018-12-23T15:28:37.133Z,100615.48
2018-12-23T15:31:27.175Z,100611.59
2018-12-23T15:34:14.518Z,100614.64
2018-12-23T15:37:08.843Z,100607.89
2018-12-23T15:40:12.163Z,100605.08
2018-12-23T15:43:03.077Z,100592.67
2018-12-23T15:45:50.277Z,100581.84
2018-12-23T15:48:38.632Z,100583.69
2018-12-23T15:51:25.719Z,100581.32
2018-12-23T15:54:12.917Z,100579.55
2018-12-23T15:57:00.006Z,100573.92
2018-12-23T15:59:55.943Z,100566.11
2018-12-23T16:02:44.061Z,100562.75
2018-12-23T16:05:32.036Z,100554.52
2018-12-23T16:08:19.276Z,100556.30
2018-12-23T16:11:13.172Z,100548.47
2018-12-23T16:17:08.421Z,100536.80
2018-12-23T16:19:56.115Z,100549.19
2018-12-23T16:22:43.836Z,100543.88
2018-12-23T16:31:54.982Z,100536.91
2018-12-23T16:34:43.112Z,100535.70
2018-12-23T16:37:34.164Z,100536.59
2018-12-23T16:40:22.360Z,100529.71
2018-12-23T16:43:10.229Z,100534.52
2018-12-23T16:45:58.684Z,100534.52
2018-12-23T16:51:56.406Z,100529.81
2018-12-23T16:54:43.672Z,100526.44
2018-12-23T16:57:31.432Z,100497.67
2018-12-23T17:00:19.528Z,100504.17
2018-12-23T17:06:13.678Z,100501.42
2018-12-23T17:09:01.001Z,100497.97
2018-12-23T17:11:53.490Z,100495.20
2018-12-23T17:14:40.738Z,100495.53
2018-12-23T17:17:27.950Z,100482.58
2018-12-23T17:20:15.567Z,100474.11
2018-12-23T17:23:04.404Z,100472.18
2018-12-23T17:25:51.647Z,100469.80
2018-12-23T17:28:40.444Z,100466.84
2018-12-23T17:31:30.217Z,100467.50
2018-12-23T17:34:18.869Z,100460.59
2018-12-23T17:37:07.738Z,100462.23
2018-12-23T17:39:55.645Z,100457.45
2018-12-23T17:42:43.365Z,100460.50
2018-12-23T17:51:44.712Z,100434.73
2018-12-23T17:54:32.301Z,100431.97
2018-12-23T17:57:23.359Z,100433.38
2018-12-23T18:00:21.822Z,100438.22
2018-12-23T18:06:31.229Z,100437.83
2018-12-23T18:09:26.778Z,100421.27
2018-12-23T18:12:33.504Z,100427.69
2018-12-23T18:21:52.514Z,100426.55
2018-12-23T18:27:55.442Z,100422.45
2018-12-23T18:33:51.446Z,100420.39
2018-12-23T18:36:42.152Z,100418.64
2018-12-23T18:39:29.978Z,100419.53
2018-12-23T18:42:18.147Z,100425.26
2018-12-23T18:45:12.194Z,100409.66
2018-12-23T18:48:00.452Z,100411.66
2018-12-23T18:50:51.938Z,100400.33
2018-12-23T18:53:41.006Z,100394.28
2018-12-23T18:56:36.053Z,100394.44
2018-12-23T18:59:31.437Z,100385.87
2018-12-23T19:05:38.002Z,100383.14
2018-12-23T19:08:32.193Z,100386.45
2018-12-23T19:11:29.472Z,100383.25
2018-12-23T19:18:11.581Z,100371.47
2018-12-23T19:21:21.197Z,100357.73
2018-12-23T19:24:37.333Z,100348.91
2018-12-23T19:30:54.476Z,100354.88
2018-12-23T19:33:54.577Z,100356.08
2018-12-23T19:37:23.224Z,100356.55
2018-12-23T19:44:15.256Z,100369.80
2018-12-23T19:47:26.243Z,100376.03
2018-12-23T19:50:25.051Z,100359.56
2018-12-23T19:53:21.106Z,100360.59
2018-12-23T19:59:45.120Z,100356.00
2018-12-23T20:02:50.587Z,100363.11
2018-12-23T20:06:02.588Z,100363.61
2018-12-23T20:09:11.530Z,100366.34
2018-12-23T20:12:26.399Z,100369.97
2018-12-23T20:15:22.666Z,100359.19
2018-12-23T20:21:30.888Z,100350.48
2018-12-23T20:27:50.958Z,100333.91
2018-12-23T20:30:47.691Z,100330.89
2018-12-23T20:34:09.915Z,100318.16
2018-12-23T20:37:16.463Z,100319.16
2018-12-23T20:40:24.631Z,100320.97
2018-12-23T20:43:24.132Z,100324.09
2018-12-23T20:46:17.696Z,100324.55
2018-12-23T20:49:13.537Z,100318.44
2018-12-23T20:52:07.417Z,100316.27
2018-12-23T20:55:01.116Z,100320.45
2018-12-23T21:04:49.312Z,100312.50
2018-12-23T21:11:15.794Z,100317.38
2018-12-23T21:14:17.471Z,100318.05
2018-12-23T21:17:28.693Z,100314.73
2018-12-23T21:23:53.196Z,100305.86
2018-12-23T21:26:57.190Z,100302.16
2018-12-23T21:29:48.280Z,100303.19
2018-12-23T21:32:53.159Z,100302.61
2018-12-23T21:35:58.282Z,100322.22
2018-12-23T21:39:08.499Z,100306.00
2018-12-23T21:42:00.326Z,100313.42
2018-12-23T21:44:49.292Z,100304.39
2018-12-23T21:48:02.065Z,100297.39
2018-12-23T21:51:01.406Z,100294.44
2018-12-23T21:53:52.615Z,100306.84
2018-12-23T21:56:45.966Z,100302.14
2018-12-23T22:03:25.243Z,100295.09
2018-12-23T22:06:48.752Z,100286.03
2018-12-23T22:09:53.607Z,100292.63
2018-12-23T22:13:01.568Z,100289.05
2018-12-23T22:15:49.375Z,100280.41
2018-12-23T22:18:36.807Z,100282.22
2018-12-23T22:21:24.123Z,100281.83
2018-12-23T22:27:21.005Z,100283.34
2018-12-23T22:30:08.364Z,100284.70
2018-12-23T22:32:56.620Z,100281.21
2018-12-23T22:35:48.934Z,100284.47
2018-12-23T22:38:37.043Z,100281.84
2018-12-23T22:41:24.688Z,100288.88
2018-12-23T22:44:14.811Z,100288.05
2018-12-23T22:47:02.958Z,100280.23
2018-12-23T22:49:52.533Z,100273.66
2018-12-23T22:52:40.168Z,100272.88
2018-12-23T22:55:28.002Z,100269.00
2018-12-23T22:58:16.800Z,100268.97
2018-12-23T23:01:09.178Z,100268.97
2018-12-23T23:03:58.228Z,100260.27
2018-12-23T23:06:48.468Z,100249.30
2018-12-23T23:09:39.100Z,100242.46
2018-12-23T23:12:26.642Z,100255.08
2018-12-23T23:15:18.459Z,100256.94
2018-12-23T23:18:06.837Z,100261.58
2018-12-23T23:20:56.036Z,100267.40
2018-12-23T23:23:45.672Z,100271.51
2018-12-23T23:26:33.339Z,100270.79
2018-12-23T23:32:29.469Z,100266.23
2018-12-23T23:35:17.734Z,100266.26
2018-12-23T23:41:11.469Z,100285.21
2018-12-23T23:43:59.276Z,100286.59
2018-12-23T23:49:54.045Z,100274.37
2018-12-23T23:52:40.955Z,100268.23
2018-12-23T23:55:28.106Z,100281.33
2018-12-23T23:58:17.739Z,100283.81
